sensor_id;sensor_type;location;lat;lon;timestamp;P1;durP1;ratioP1;P2;durP2;ratioP2
2624;SDS011;1322;53.256;10.386;2023-07-29T00:01:33;8.07;;;6.77;;
2624;SDS011;1322;53.256;10.386;2023-07-29T00:03:59;7.03;;;6.30;;
2624;SDS011;1322;53.256;10.386;2023-07-29T00:06:25;7.30;;;5.47;;
2624;SDS011;1322;53.256;10.386;2023-07-29T00:08:50;7.17;;;6.30;;
2624;SDS011;1322;53.256;10.386;2023-07-29T00:11:16;7.23;;;6.23;;
2624;SDS011;1322;53.256;10.386;2023-07-29T00:13:41;7.93;;;6.50;;
2624;SDS011;1322;53.256;10.386;2023-07-29T00:16:07;7.30;;;6.07;;
2624;SDS011;1322;53.256;10.386;2023-07-29T00:18:33;7.30;;;6.40;;
2624;SDS011;1322;53.256;10.386;2023-07-29T00:20:59;7.87;;;7.07;;
2624;SDS011;1322;53.256;10.386;2023-07-29T00:23:24;7.93;;;6.50;;
2624;SDS011;1322;53.256;10.386;2023-07-29T00:25:50;8.30;;;6.50;;
2624;SDS011;1322;53.256;10.386;2023-07-29T00:28:16;7.97;;;6.77;;
2624;SDS011;1322;53.256;10.386;2023-07-29T00:30:41;6.40;;;5.80;;
2624;SDS011;1322;53.256;10.386;2023-07-29T00:33:07;6.33;;;5.70;;
2624;SDS011;1322;53.256;10.386;2023-07-29T00:35:33;7.00;;;6.20;;
2624;SDS011;1322;53.256;10.386;2023-07-29T00:37:59;6.90;;;6.10;;
2624;SDS011;1322;53.256;10.386;2023-07-29T00:40:25;6.93;;;6.23;;
2624;SDS011;1322;53.256;10.386;2023-07-29T00:42:53;6.73;;;6.13;;
2624;SDS011;1322;53.256;10.386;2023-07-29T00:45:19;6.67;;;6.00;;
2624;SDS011;1322;53.256;10.386;2023-07-29T00:47:45;9.83;;;6.67;;
2624;SDS011;1322;53.256;10.386;2023-07-29T00:50:13;7.67;;;6.77;;
2624;SDS011;1322;53.256;10.386;2023-07-29T00:52:39;6.77;;;5.93;;
2624;SDS011;1322;53.256;10.386;2023-07-29T00:55:05;7.90;;;5.90;;
2624;SDS011;1322;53.256;10.386;2023-07-29T00:57:32;10.83;;;6.17;;
2624;SDS011;1322;53.256;10.386;2023-07-29T00:59:58;5.80;;;5.20;;
2624;SDS011;1322;53.256;10.386;2023-07-29T01:02:25;7.00;;;6.33;;
2624;SDS011;1322;53.256;10.386;2023-07-29T01:04:52;7.83;;;5.27;;
2624;SDS011;1322;53.256;10.386;2023-07-29T01:07:25;8.27;;;7.00;;
2624;SDS011;1322;53.256;10.386;2023-07-29T01:10:05;7.27;;;5.80;;
2624;SDS011;1322;53.256;10.386;2023-07-29T01:12:42;7.00;;;5.93;;
2624;SDS011;1322;53.256;10.386;2023-07-29T01:17:52;6.80;;;6.10;;
2624;SDS011;1322;53.256;10.386;2023-07-29T01:20:20;10.80;;;6.20;;
2624;SDS011;1322;53.256;10.386;2023-07-29T01:22:48;7.17;;;6.47;;
2624;SDS011;1322;53.256;10.386;2023-07-29T01:25:14;8.63;;;6.17;;
2624;SDS011;1322;53.256;10.386;2023-07-29T01:27:41;6.97;;;5.83;;
2624;SDS011;1322;53.256;10.386;2023-07-29T01:30:08;12.43;;;6.10;;
2624;SDS011;1322;53.256;10.386;2023-07-29T01:32:41;6.20;;;5.60;;
2624;SDS011;1322;53.256;10.386;2023-07-29T01:35:29;6.60;;;6.00;;
2624;SDS011;1322;53.256;10.386;2023-07-29T01:38:03;8.20;;;6.87;;
2624;SDS011;1322;53.256;10.386;2023-07-29T01:40:41;11.70;;;6.37;;
2624;SDS011;1322;53.256;10.386;2023-07-29T01:43:09;7.37;;;6.67;;
2624;SDS011;1322;53.256;10.386;2023-07-29T01:45:35;11.40;;;6.80;;
2624;SDS011;1322;53.256;10.386;2023-07-29T01:48:04;7.27;;;6.20;;
2624;SDS011;1322;53.256;10.386;2023-07-29T01:50:30;7.63;;;6.83;;
2624;SDS011;1322;53.256;10.386;2023-07-29T01:52:57;7.70;;;6.77;;
2624;SDS011;1322;53.256;10.386;2023-07-29T01:55:23;8.63;;;7.80;;
2624;SDS011;1322;53.256;10.386;2023-07-29T01:57:49;10.40;;;7.30;;
2624;SDS011;1322;53.256;10.386;2023-07-29T02:00:16;13.00;;;8.00;;
2624;SDS011;1322;53.256;10.386;2023-07-29T02:02:42;8.30;;;7.50;;
2624;SDS011;1322;53.256;10.386;2023-07-29T02:05:08;7.20;;;6.60;;
2624;SDS011;1322;53.256;10.386;2023-07-29T02:07:33;9.73;;;7.30;;
2624;SDS011;1322;53.256;10.386;2023-07-29T02:09:59;7.77;;;6.80;;
2624;SDS011;1322;53.256;10.386;2023-07-29T02:12:25;12.40;;;7.43;;
2624;SDS011;1322;53.256;10.386;2023-07-29T02:14:50;12.40;;;7.90;;
2624;SDS011;1322;53.256;10.386;2023-07-29T02:17:16;13.20;;;7.70;;
2624;SDS011;1322;53.256;10.386;2023-07-29T02:19:42;13.73;;;6.43;;
2624;SDS011;1322;53.256;10.386;2023-07-29T02:22:07;8.33;;;6.80;;
2624;SDS011;1322;53.256;10.386;2023-07-29T02:24:33;10.83;;;7.13;;
2624;SDS011;1322;53.256;10.386;2023-07-29T02:26:59;9.83;;;7.90;;
2624;SDS011;1322;53.256;10.386;2023-07-29T02:29:24;9.03;;;7.30;;
2624;SDS011;1322;53.256;10.386;2023-07-29T02:31:50;7.53;;;6.60;;
2624;SDS011;1322;53.256;10.386;2023-07-29T02:34:16;7.77;;;6.77;;
2624;SDS011;1322;53.256;10.386;2023-07-29T02:36:41;8.53;;;7.70;;
2624;SDS011;1322;53.256;10.386;2023-07-29T02:39:07;8.47;;;7.57;;
2624;SDS011;1322;53.256;10.386;2023-07-29T02:41:33;7.57;;;6.77;;
2624;SDS011;1322;53.256;10.386;2023-07-29T02:43:58;8.10;;;7.30;;
2624;SDS011;1322;53.256;10.386;2023-07-29T02:46:24;8.20;;;7.40;;
2624;SDS011;1322;53.256;10.386;2023-07-29T02:48:50;7.73;;;7.03;;
2624;SDS011;1322;53.256;10.386;2023-07-29T02:51:15;11.40;;;8.10;;
2624;SDS011;1322;53.256;10.386;2023-07-29T02:53:41;12.20;;;8.77;;
2624;SDS011;1322;53.256;10.386;2023-07-29T02:56:07;11.90;;;9.10;;
2624;SDS011;1322;53.256;10.386;2023-07-29T02:58:34;12.17;;;7.90;;
2624;SDS011;1322;53.256;10.386;2023-07-29T03:01:01;16.60;;;9.70;;
2624;SDS011;1322;53.256;10.386;2023-07-29T03:03:28;12.30;;;7.77;;
2624;SDS011;1322;53.256;10.386;2023-07-29T03:05:58;10.10;;;8.17;;
2624;SDS011;1322;53.256;10.386;2023-07-29T03:08:27;9.73;;;8.10;;
2624;SDS011;1322;53.256;10.386;2023-07-29T03:10:53;11.97;;;8.50;;
2624;SDS011;1322;53.256;10.386;2023-07-29T03:13:19;8.23;;;7.43;;
2624;SDS011;1322;53.256;10.386;2023-07-29T03:15:45;8.90;;;8.10;;
2624;SDS011;1322;53.256;10.386;2023-07-29T03:18:11;11.10;;;8.17;;
2624;SDS011;1322;53.256;10.386;2023-07-29T03:20:36;9.30;;;8.40;;
2624;SDS011;1322;53.256;10.386;2023-07-29T03:23:02;9.57;;;8.10;;
2624;SDS011;1322;53.256;10.386;2023-07-29T03:25:28;9.43;;;8.40;;
2624;SDS011;1322;53.256;10.386;2023-07-29T03:27:54;9.50;;;8.57;;
2624;SDS011;1322;53.256;10.386;2023-07-29T03:30:20;12.83;;;8.10;;
2624;SDS011;1322;53.256;10.386;2023-07-29T03:32:48;9.90;;;8.57;;
2624;SDS011;1322;53.256;10.386;2023-07-29T03:35:14;10.80;;;9.70;;
2624;SDS011;1322;53.256;10.386;2023-07-29T03:37:40;11.20;;;9.23;;
2624;SDS011;1322;53.256;10.386;2023-07-29T03:40:06;10.37;;;9.30;;
2624;SDS011;1322;53.256;10.386;2023-07-29T03:42:34;15.30;;;8.10;;
2624;SDS011;1322;53.256;10.386;2023-07-29T03:44:59;11.13;;;9.60;;
2624;SDS011;1322;53.256;10.386;2023-07-29T03:47:25;11.10;;;9.10;;
2624;SDS011;1322;53.256;10.386;2023-07-29T03:49:51;10.43;;;9.33;;
2624;SDS011;1322;53.256;10.386;2023-07-29T03:52:17;10.93;;;8.63;;
2624;SDS011;1322;53.256;10.386;2023-07-29T03:54:42;14.27;;;9.40;;
2624;SDS011;1322;53.256;10.386;2023-07-29T03:57:08;10.10;;;8.97;;
2624;SDS011;1322;53.256;10.386;2023-07-29T03:59:34;12.13;;;8.87;;
2624;SDS011;1322;53.256;10.386;2023-07-29T04:01:59;11.80;;;9.53;;
2624;SDS011;1322;53.256;10.386;2023-07-29T04:04:25;10.70;;;8.17;;
2624;SDS011;1322;53.256;10.386;2023-07-29T04:06:51;10.83;;;8.73;;
2624;SDS011;1322;53.256;10.386;2023-07-29T04:09:16;10.90;;;8.20;;
2624;SDS011;1322;53.256;10.386;2023-07-29T04:11:42;9.33;;;8.53;;
2624;SDS011;1322;53.256;10.386;2023-07-29T04:14:08;11.43;;;9.33;;
2624;SDS011;1322;53.256;10.386;2023-07-29T04:16:34;12.47;;;9.97;;
2624;SDS011;1322;53.256;10.386;2023-07-29T04:18:59;10.37;;;9.27;;
2624;SDS011;1322;53.256;10.386;2023-07-29T04:21:25;11.50;;;9.63;;
2624;SDS011;1322;53.256;10.386;2023-07-29T04:23:51;11.70;;;9.87;;
2624;SDS011;1322;53.256;10.386;2023-07-29T04:26:16;13.17;;;9.77;;
2624;SDS011;1322;53.256;10.386;2023-07-29T04:28:42;9.93;;;8.90;;
2624;SDS011;1322;53.256;10.386;2023-07-29T04:31:08;11.83;;;9.50;;
2624;SDS011;1322;53.256;10.386;2023-07-29T04:33:33;9.73;;;8.73;;
2624;SDS011;1322;53.256;10.386;2023-07-29T04:35:59;10.07;;;9.07;;
2624;SDS011;1322;53.256;10.386;2023-07-29T04:38:30;11.83;;;10.63;;
2624;SDS011;1322;53.256;10.386;2023-07-29T04:40:57;14.17;;;10.07;;
2624;SDS011;1322;53.256;10.386;2023-07-29T04:43:26;10.10;;;9.10;;
2624;SDS011;1322;53.256;10.386;2023-07-29T04:45:53;11.30;;;9.57;;
2624;SDS011;1322;53.256;10.386;2023-07-29T04:48:19;14.17;;;9.50;;
2624;SDS011;1322;53.256;10.386;2023-07-29T04:50:45;12.87;;;9.80;;
2624;SDS011;1322;53.256;10.386;2023-07-29T04:53:11;12.23;;;10.07;;
2624;SDS011;1322;53.256;10.386;2023-07-29T04:55:36;12.80;;;11.07;;
2624;SDS011;1322;53.256;10.386;2023-07-29T04:58:02;11.00;;;9.90;;
2624;SDS011;1322;53.256;10.386;2023-07-29T05:00:27;10.17;;;9.17;;
2624;SDS011;1322;53.256;10.386;2023-07-29T05:02:53;11.43;;;10.07;;
2624;SDS011;1322;53.256;10.386;2023-07-29T05:05:19;11.50;;;9.43;;
2624;SDS011;1322;53.256;10.386;2023-07-29T05:07:44;13.07;;;10.17;;
2624;SDS011;1322;53.256;10.386;2023-07-29T05:10:10;11.80;;;10.70;;
2624;SDS011;1322;53.256;10.386;2023-07-29T05:12:36;13.77;;;9.97;;
2624;SDS011;1322;53.256;10.386;2023-07-29T05:15:02;10.57;;;9.20;;
2624;SDS011;1322;53.256;10.386;2023-07-29T05:17:27;12.23;;;10.20;;
2624;SDS011;1322;53.256;10.386;2023-07-29T05:19:53;12.57;;;10.20;;
2624;SDS011;1322;53.256;10.386;2023-07-29T05:22:19;12.40;;;10.70;;
2624;SDS011;1322;53.256;10.386;2023-07-29T05:24:44;11.50;;;10.33;;
2624;SDS011;1322;53.256;10.386;2023-07-29T05:27:10;13.17;;;11.30;;
2624;SDS011;1322;53.256;10.386;2023-07-29T05:29:36;14.87;;;11.17;;
2624;SDS011;1322;53.256;10.386;2023-07-29T05:32:01;18.07;;;10.50;;
2624;SDS011;1322;53.256;10.386;2023-07-29T05:34:27;16.60;;;12.10;;
2624;SDS011;1322;53.256;10.386;2023-07-29T05:36:53;12.27;;;11.10;;
2624;SDS011;1322;53.256;10.386;2023-07-29T05:39:18;15.80;;;11.23;;
2624;SDS011;1322;53.256;10.386;2023-07-29T05:41:44;14.63;;;11.13;;
2624;SDS011;1322;53.256;10.386;2023-07-29T05:44:10;12.67;;;10.80;;
2624;SDS011;1322;53.256;10.386;2023-07-29T05:46:36;13.03;;;11.43;;
2624;SDS011;1322;53.256;10.386;2023-07-29T05:49:01;12.80;;;10.60;;
2624;SDS011;1322;53.256;10.386;2023-07-29T05:51:27;12.37;;;11.20;;
2624;SDS011;1322;53.256;10.386;2023-07-29T05:53:53;13.30;;;11.77;;
2624;SDS011;1322;53.256;10.386;2023-07-29T05:56:19;12.90;;;11.57;;
2624;SDS011;1322;53.256;10.386;2023-07-29T05:58:44;13.73;;;11.37;;
2624;SDS011;1322;53.256;10.386;2023-07-29T06:01:10;15.30;;;10.70;;
2624;SDS011;1322;53.256;10.386;2023-07-29T06:03:36;12.90;;;10.90;;
2624;SDS011;1322;53.256;10.386;2023-07-29T06:06:01;10.50;;;9.40;;
2624;SDS011;1322;53.256;10.386;2023-07-29T06:08:27;11.07;;;9.60;;
2624;SDS011;1322;53.256;10.386;2023-07-29T06:10:54;11.33;;;9.40;;
2624;SDS011;1322;53.256;10.386;2023-07-29T06:13:19;9.63;;;8.73;;
2624;SDS011;1322;53.256;10.386;2023-07-29T06:15:45;9.10;;;8.20;;
2624;SDS011;1322;53.256;10.386;2023-07-29T06:18:11;12.03;;;9.57;;
2624;SDS011;1322;53.256;10.386;2023-07-29T06:20:36;10.30;;;9.20;;
2624;SDS011;1322;53.256;10.386;2023-07-29T06:23:02;9.40;;;8.50;;
2624;SDS011;1322;53.256;10.386;2023-07-29T06:25:28;9.70;;;8.77;;
2624;SDS011;1322;53.256;10.386;2023-07-29T06:27:54;11.63;;;10.50;;
2624;SDS011;1322;53.256;10.386;2023-07-29T06:30:19;9.90;;;8.90;;
2624;SDS011;1322;53.256;10.386;2023-07-29T06:32:45;11.13;;;10.10;;
2624;SDS011;1322;53.256;10.386;2023-07-29T06:35:10;11.20;;;10.10;;
2624;SDS011;1322;53.256;10.386;2023-07-29T06:37:36;10.20;;;9.20;;
2624;SDS011;1322;53.256;10.386;2023-07-29T06:40:01;11.10;;;9.57;;
2624;SDS011;1322;53.256;10.386;2023-07-29T06:42:28;16.77;;;8.63;;
2624;SDS011;1322;53.256;10.386;2023-07-29T06:44:53;9.03;;;8.10;;
2624;SDS011;1322;53.256;10.386;2023-07-29T06:47:19;8.40;;;7.50;;
2624;SDS011;1322;53.256;10.386;2023-07-29T06:49:45;8.50;;;7.60;;
2624;SDS011;1322;53.256;10.386;2023-07-29T06:52:11;6.90;;;6.30;;
2624;SDS011;1322;53.256;10.386;2023-07-29T06:54:37;8.63;;;7.73;;
2624;SDS011;1322;53.256;10.386;2023-07-29T06:57:02;11.43;;;5.70;;
2624;SDS011;1322;53.256;10.386;2023-07-29T06:59:28;8.13;;;5.63;;
2624;SDS011;1322;53.256;10.386;2023-07-29T07:01:54;6.13;;;5.27;;
2624;SDS011;1322;53.256;10.386;2023-07-29T07:04:20;6.30;;;5.70;;
2624;SDS011;1322;53.256;10.386;2023-07-29T07:06:45;6.50;;;4.97;;
2624;SDS011;1322;53.256;10.386;2023-07-29T07:09:11;6.80;;;4.90;;
2624;SDS011;1322;53.256;10.386;2023-07-29T07:11:36;5.90;;;5.30;;
2624;SDS011;1322;53.256;10.386;2023-07-29T07:14:02;4.97;;;4.47;;
2624;SDS011;1322;53.256;10.386;2023-07-29T07:16:28;4.63;;;3.97;;
2624;SDS011;1322;53.256;10.386;2023-07-29T07:18:55;5.17;;;4.20;;
2624;SDS011;1322;53.256;10.386;2023-07-29T07:21:21;5.30;;;4.80;;
2624;SDS011;1322;53.256;10.386;2023-07-29T07:23:48;6.60;;;3.60;;
2624;SDS011;1322;53.256;10.386;2023-07-29T07:26:15;4.17;;;3.77;;
2624;SDS011;1322;53.256;10.386;2023-07-29T07:28:40;4.00;;;3.23;;
2624;SDS011;1322;53.256;10.386;2023-07-29T07:31:06;3.90;;;3.50;;
2624;SDS011;1322;53.256;10.386;2023-07-29T07:33:31;4.93;;;3.53;;
2624;SDS011;1322;53.256;10.386;2023-07-29T07:35:57;4.47;;;3.70;;
2624;SDS011;1322;53.256;10.386;2023-07-29T07:38:23;6.40;;;3.70;;
2624;SDS011;1322;53.256;10.386;2023-07-29T07:40:55;4.93;;;3.50;;
2624;SDS011;1322;53.256;10.386;2023-07-29T07:43:21;4.53;;;3.70;;
2624;SDS011;1322;53.256;10.386;2023-07-29T07:45:48;4.43;;;3.33;;
2624;SDS011;1322;53.256;10.386;2023-07-29T07:48:13;4.77;;;3.10;;
2624;SDS011;1322;53.256;10.386;2023-07-29T07:50:41;3.00;;;2.60;;
2624;SDS011;1322;53.256;10.386;2023-07-29T07:53:07;6.03;;;4.20;;
2624;SDS011;1322;53.256;10.386;2023-07-29T07:55:33;4.87;;;3.70;;
2624;SDS011;1322;53.256;10.386;2023-07-29T07:57:58;3.83;;;2.80;;
2624;SDS011;1322;53.256;10.386;2023-07-29T08:00:24;3.40;;;3.10;;
2624;SDS011;1322;53.256;10.386;2023-07-29T08:02:50;3.20;;;2.83;;
2624;SDS011;1322;53.256;10.386;2023-07-29T08:05:15;5.50;;;3.70;;
2624;SDS011;1322;53.256;10.386;2023-07-29T08:07:41;3.60;;;3.17;;
2624;SDS011;1322;53.256;10.386;2023-07-29T08:10:07;3.90;;;3.50;;
2624;SDS011;1322;53.256;10.386;2023-07-29T08:12:33;5.23;;;3.60;;
2624;SDS011;1322;53.256;10.386;2023-07-29T08:14:58;3.90;;;3.60;;
2624;SDS011;1322;53.256;10.386;2023-07-29T08:17:24;6.00;;;3.53;;
2624;SDS011;1322;53.256;10.386;2023-07-29T08:19:49;4.20;;;3.83;;
2624;SDS011;1322;53.256;10.386;2023-07-29T08:22:15;5.73;;;3.83;;
2624;SDS011;1322;53.256;10.386;2023-07-29T08:24:42;4.60;;;4.10;;
2624;SDS011;1322;53.256;10.386;2023-07-29T08:27:08;5.63;;;4.33;;
2624;SDS011;1322;53.256;10.386;2023-07-29T08:29:34;5.03;;;4.20;;
2624;SDS011;1322;53.256;10.386;2023-07-29T08:32:00;4.50;;;4.10;;
2624;SDS011;1322;53.256;10.386;2023-07-29T08:34:26;7.40;;;4.10;;
2624;SDS011;1322;53.256;10.386;2023-07-29T08:36:52;4.93;;;4.10;;
2624;SDS011;1322;53.256;10.386;2023-07-29T08:39:17;4.80;;;4.40;;
2624;SDS011;1322;53.256;10.386;2023-07-29T08:41:49;4.73;;;4.33;;
2624;SDS011;1322;53.256;10.386;2023-07-29T08:44:40;5.43;;;4.93;;
2624;SDS011;1322;53.256;10.386;2023-07-29T08:47:07;8.60;;;4.70;;
2624;SDS011;1322;53.256;10.386;2023-07-29T08:49:34;6.33;;;5.13;;
2624;SDS011;1322;53.256;10.386;2023-07-29T08:52:01;6.40;;;5.40;;
2624;SDS011;1322;53.256;10.386;2023-07-29T08:54:28;5.30;;;4.80;;
2624;SDS011;1322;53.256;10.386;2023-07-29T08:56:54;5.40;;;4.97;;
2624;SDS011;1322;53.256;10.386;2023-07-29T08:59:20;7.23;;;6.53;;
2624;SDS011;1322;53.256;10.386;2023-07-29T09:01:46;11.97;;;10.97;;
2624;SDS011;1322;53.256;10.386;2023-07-29T09:04:12;8.40;;;7.33;;
2624;SDS011;1322;53.256;10.386;2023-07-29T09:06:38;8.33;;;7.53;;
2624;SDS011;1322;53.256;10.386;2023-07-29T09:09:05;13.50;;;9.20;;
2624;SDS011;1322;53.256;10.386;2023-07-29T09:11:32;13.03;;;9.53;;
2624;SDS011;1322;53.256;10.386;2023-07-29T09:13:58;10.27;;;8.40;;
2624;SDS011;1322;53.256;10.386;2023-07-29T09:16:24;16.00;;;10.47;;
2624;SDS011;1322;53.256;10.386;2023-07-29T09:18:50;13.53;;;10.37;;
2624;SDS011;1322;53.256;10.386;2023-07-29T09:21:17;14.70;;;10.90;;
2624;SDS011;1322;53.256;10.386;2023-07-29T09:23:47;15.30;;;12.40;;
2624;SDS011;1322;53.256;10.386;2023-07-29T09:26:14;19.97;;;11.10;;
2624;SDS011;1322;53.256;10.386;2023-07-29T09:28:54;15.73;;;10.77;;
2624;SDS011;1322;53.256;10.386;2023-07-29T09:31:21;12.23;;;9.67;;
2624;SDS011;1322;53.256;10.386;2023-07-29T09:33:48;8.37;;;7.20;;
2624;SDS011;1322;53.256;10.386;2023-07-29T09:36:14;10.87;;;7.30;;
2624;SDS011;1322;53.256;10.386;2023-07-29T09:38:40;7.03;;;5.50;;
2624;SDS011;1322;53.256;10.386;2023-07-29T09:41:06;6.03;;;5.43;;
2624;SDS011;1322;53.256;10.386;2023-07-29T09:43:32;8.70;;;4.30;;
2624;SDS011;1322;53.256;10.386;2023-07-29T09:46:02;5.63;;;3.80;;
2624;SDS011;1322;53.256;10.386;2023-07-29T09:48:33;5.10;;;3.40;;
2624;SDS011;1322;53.256;10.386;2023-07-29T09:51:03;4.47;;;3.57;;
2624;SDS011;1322;53.256;10.386;2023-07-29T09:53:44;5.30;;;3.70;;
2624;SDS011;1322;53.256;10.386;2023-07-29T09:56:11;5.73;;;4.63;;
2624;SDS011;1322;53.256;10.386;2023-07-29T09:58:38;5.77;;;5.10;;
2624;SDS011;1322;53.256;10.386;2023-07-29T10:01:06;7.73;;;6.47;;
2624;SDS011;1322;53.256;10.386;2023-07-29T10:03:32;7.73;;;6.90;;
2624;SDS011;1322;53.256;10.386;2023-07-29T10:06:03;6.67;;;5.97;;
2624;SDS011;1322;53.256;10.386;2023-07-29T10:08:30;7.70;;;6.80;;
2624;SDS011;1322;53.256;10.386;2023-07-29T10:11:00;9.17;;;8.20;;
2624;SDS011;1322;53.256;10.386;2023-07-29T10:13:27;11.30;;;9.47;;
2624;SDS011;1322;53.256;10.386;2023-07-29T10:15:53;11.00;;;9.70;;
2624;SDS011;1322;53.256;10.386;2023-07-29T10:18:21;9.70;;;8.70;;
2624;SDS011;1322;53.256;10.386;2023-07-29T10:20:48;10.77;;;9.60;;
2624;SDS011;1322;53.256;10.386;2023-07-29T10:23:16;12.23;;;11.03;;
2624;SDS011;1322;53.256;10.386;2023-07-29T10:25:59;14.30;;;11.33;;
2624;SDS011;1322;53.256;10.386;2023-07-29T10:28:30;13.33;;;11.70;;
2624;SDS011;1322;53.256;10.386;2023-07-29T10:30:57;13.10;;;11.77;;
2624;SDS011;1322;53.256;10.386;2023-07-29T10:33:23;14.87;;;13.30;;
2624;SDS011;1322;53.256;10.386;2023-07-29T10:35:49;12.70;;;11.50;;
2624;SDS011;1322;53.256;10.386;2023-07-29T10:38:16;13.77;;;12.47;;
2624;SDS011;1322;53.256;10.386;2023-07-29T10:40:44;13.90;;;12.60;;
2624;SDS011;1322;53.256;10.386;2023-07-29T10:43:36;14.53;;;12.73;;
2624;SDS011;1322;53.256;10.386;2023-07-29T10:46:16;13.50;;;12.30;;
2624;SDS011;1322;53.256;10.386;2023-07-29T10:51:28;13.93;;;12.47;;
2624;SDS011;1322;53.256;10.386;2023-07-29T10:54:02;14.40;;;12.00;;
2624;SDS011;1322;53.256;10.386;2023-07-29T10:56:33;14.07;;;12.77;;
2624;SDS011;1322;53.256;10.386;2023-07-29T11:01:41;12.73;;;11.63;;
2624;SDS011;1322;53.256;10.386;2023-07-29T11:07:08;12.80;;;11.50;;
2624;SDS011;1322;53.256;10.386;2023-07-29T11:17:56;11.53;;;10.37;;
2624;SDS011;1322;53.256;10.386;2023-07-29T11:20:24;11.80;;;10.70;;
2624;SDS011;1322;53.256;10.386;2023-07-29T11:22:54;10.90;;;10.00;;
2624;SDS011;1322;53.256;10.386;2023-07-29T11:25:21;10.63;;;9.63;;
2624;SDS011;1322;53.256;10.386;2023-07-29T11:27:48;11.30;;;10.30;;
2624;SDS011;1322;53.256;10.386;2023-07-29T11:30:15;10.93;;;10.03;;
2624;SDS011;1322;53.256;10.386;2023-07-29T11:32:42;10.57;;;9.57;;
2624;SDS011;1322;53.256;10.386;2023-07-29T11:35:09;12.10;;;10.80;;
2624;SDS011;1322;53.256;10.386;2023-07-29T11:37:38;11.73;;;10.63;;
2624;SDS011;1322;53.256;10.386;2023-07-29T11:40:05;11.80;;;9.63;;
2624;SDS011;1322;53.256;10.386;2023-07-29T11:42:34;10.10;;;9.23;;
2624;SDS011;1322;53.256;10.386;2023-07-29T11:45:00;10.10;;;9.03;;
2624;SDS011;1322;53.256;10.386;2023-07-29T11:47:28;9.30;;;8.50;;
2624;SDS011;1322;53.256;10.386;2023-07-29T11:49:54;10.43;;;9.43;;
2624;SDS011;1322;53.256;10.386;2023-07-29T11:52:22;10.40;;;9.50;;
2624;SDS011;1322;53.256;10.386;2023-07-29T11:54:49;9.60;;;8.70;;
2624;SDS011;1322;53.256;10.386;2023-07-29T11:57:15;10.17;;;9.27;;
2624;SDS011;1322;53.256;10.386;2023-07-29T11:59:43;10.20;;;9.40;;
2624;SDS011;1322;53.256;10.386;2023-07-29T12:02:16;8.40;;;7.60;;
2624;SDS011;1322;53.256;10.386;2023-07-29T12:04:43;9.77;;;7.40;;
2624;SDS011;1322;53.256;10.386;2023-07-29T12:07:11;7.70;;;7.03;;
2624;SDS011;1322;53.256;10.386;2023-07-29T12:09:38;5.83;;;5.33;;
2624;SDS011;1322;53.256;10.386;2023-07-29T12:12:05;6.97;;;5.50;;
2624;SDS011;1322;53.256;10.386;2023-07-29T12:14:31;6.47;;;5.30;;
2624;SDS011;1322;53.256;10.386;2023-07-29T12:17:01;7.03;;;6.33;;
2624;SDS011;1322;53.256;10.386;2023-07-29T12:19:35;6.40;;;5.70;;
2624;SDS011;1322;53.256;10.386;2023-07-29T12:22:02;6.57;;;5.63;;
2624;SDS011;1322;53.256;10.386;2023-07-29T12:24:33;6.60;;;6.00;;
2624;SDS011;1322;53.256;10.386;2023-07-29T12:27:00;5.60;;;5.10;;
2624;SDS011;1322;53.256;10.386;2023-07-29T12:29:26;5.13;;;4.63;;
2624;SDS011;1322;53.256;10.386;2023-07-29T12:31:59;5.23;;;4.73;;
2624;SDS011;1322;53.256;10.386;2023-07-29T12:34:26;5.20;;;4.60;;
2624;SDS011;1322;53.256;10.386;2023-07-29T12:36:53;10.00;;;4.30;;
2624;SDS011;1322;53.256;10.386;2023-07-29T12:39:22;6.10;;;4.47;;
2624;SDS011;1322;53.256;10.386;2023-07-29T12:41:48;5.73;;;4.50;;
2624;SDS011;1322;53.256;10.386;2023-07-29T12:44:15;4.93;;;4.30;;
2624;SDS011;1322;53.256;10.386;2023-07-29T12:46:41;5.53;;;4.00;;
2624;SDS011;1322;53.256;10.386;2023-07-29T12:49:06;5.30;;;4.73;;
2624;SDS011;1322;53.256;10.386;2023-07-29T12:51:32;4.80;;;4.30;;
2624;SDS011;1322;53.256;10.386;2023-07-29T12:53:59;4.43;;;3.90;;
2624;SDS011;1322;53.256;10.386;2023-07-29T12:56:25;4.20;;;3.80;;
2624;SDS011;1322;53.256;10.386;2023-07-29T12:58:51;4.20;;;3.80;;
2624;SDS011;1322;53.256;10.386;2023-07-29T13:01:17;4.37;;;3.67;;
2624;SDS011;1322;53.256;10.386;2023-07-29T13:03:43;4.07;;;3.73;;
2624;SDS011;1322;53.256;10.386;2023-07-29T13:06:09;8.33;;;3.77;;
2624;SDS011;1322;53.256;10.386;2023-07-29T13:08:35;9.80;;;3.70;;
2624;SDS011;1322;53.256;10.386;2023-07-29T13:11:00;4.33;;;3.93;;
2624;SDS011;1322;53.256;10.386;2023-07-29T13:13:27;12.77;;;4.30;;
2624;SDS011;1322;53.256;10.386;2023-07-29T13:15:52;3.87;;;3.37;;
2624;SDS011;1322;53.256;10.386;2023-07-29T13:18:18;3.70;;;3.20;;
2624;SDS011;1322;53.256;10.386;2023-07-29T13:20:43;4.20;;;3.80;;
2624;SDS011;1322;53.256;10.386;2023-07-29T13:23:09;3.83;;;3.53;;
2624;SDS011;1322;53.256;10.386;2023-07-29T13:25:35;5.57;;;3.30;;
2624;SDS011;1322;53.256;10.386;2023-07-29T13:28:00;3.90;;;3.03;;
2624;SDS011;1322;53.256;10.386;2023-07-29T13:30:26;5.40;;;3.60;;
2624;SDS011;1322;53.256;10.386;2023-07-29T13:32:52;3.47;;;3.07;;
2624;SDS011;1322;53.256;10.386;2023-07-29T13:35:18;5.70;;;2.80;;
2624;SDS011;1322;53.256;10.386;2023-07-29T13:37:43;3.20;;;2.90;;
2624;SDS011;1322;53.256;10.386;2023-07-29T13:40:09;3.80;;;3.50;;
2624;SDS011;1322;53.256;10.386;2023-07-29T13:42:35;3.90;;;2.87;;
2624;SDS011;1322;53.256;10.386;2023-07-29T13:45:01;3.73;;;3.30;;
2624;SDS011;1322;53.256;10.386;2023-07-29T13:47:27;3.67;;;3.17;;
2624;SDS011;1322;53.256;10.386;2023-07-29T13:49:53;3.33;;;2.87;;
2624;SDS011;1322;53.256;10.386;2023-07-29T13:52:18;2.90;;;2.60;;
2624;SDS011;1322;53.256;10.386;2023-07-29T13:54:44;4.03;;;2.90;;
2624;SDS011;1322;53.256;10.386;2023-07-29T13:57:09;3.00;;;2.70;;
2624;SDS011;1322;53.256;10.386;2023-07-29T13:59:35;3.67;;;2.53;;
2624;SDS011;1322;53.256;10.386;2023-07-29T14:02:04;3.43;;;2.50;;
2624;SDS011;1322;53.256;10.386;2023-07-29T14:04:31;2.97;;;2.60;;
2624;SDS011;1322;53.256;10.386;2023-07-29T14:06:57;4.70;;;2.40;;
2624;SDS011;1322;53.256;10.386;2023-07-29T14:09:23;2.90;;;2.57;;
2624;SDS011;1322;53.256;10.386;2023-07-29T14:11:49;2.57;;;2.20;;
2624;SDS011;1322;53.256;10.386;2023-07-29T14:14:15;2.43;;;2.23;;
2624;SDS011;1322;53.256;10.386;2023-07-29T14:16:41;2.73;;;2.43;;
2624;SDS011;1322;53.256;10.386;2023-07-29T14:19:06;3.10;;;2.43;;
2624;SDS011;1322;53.256;10.386;2023-07-29T14:21:32;3.60;;;1.90;;
2624;SDS011;1322;53.256;10.386;2023-07-29T14:23:57;3.03;;;2.60;;
2624;SDS011;1322;53.256;10.386;2023-07-29T14:26:23;5.10;;;3.20;;
2624;SDS011;1322;53.256;10.386;2023-07-29T14:28:48;2.73;;;2.40;;
2624;SDS011;1322;53.256;10.386;2023-07-29T14:31:15;4.10;;;2.43;;
2624;SDS011;1322;53.256;10.386;2023-07-29T14:33:42;2.70;;;2.37;;
2624;SDS011;1322;53.256;10.386;2023-07-29T14:36:08;2.47;;;2.27;;
2624;SDS011;1322;53.256;10.386;2023-07-29T14:38:34;3.70;;;2.47;;
2624;SDS011;1322;53.256;10.386;2023-07-29T14:41:00;3.50;;;2.80;;
2624;SDS011;1322;53.256;10.386;2023-07-29T14:43:26;3.43;;;2.23;;
2624;SDS011;1322;53.256;10.386;2023-07-29T14:45:51;3.07;;;2.23;;
2624;SDS011;1322;53.256;10.386;2023-07-29T14:48:17;2.57;;;2.37;;
2624;SDS011;1322;53.256;10.386;2023-07-29T14:50:43;2.40;;;2.20;;
2624;SDS011;1322;53.256;10.386;2023-07-29T14:53:09;5.03;;;2.50;;
2624;SDS011;1322;53.256;10.386;2023-07-29T14:55:36;2.83;;;2.53;;
2624;SDS011;1322;53.256;10.386;2023-07-29T14:58:02;2.80;;;2.50;;
2624;SDS011;1322;53.256;10.386;2023-07-29T15:00:28;2.93;;;2.30;;
2624;SDS011;1322;53.256;10.386;2023-07-29T15:02:54;4.30;;;2.37;;
2624;SDS011;1322;53.256;10.386;2023-07-29T15:05:20;2.63;;;2.23;;
2624;SDS011;1322;53.256;10.386;2023-07-29T15:07:46;2.60;;;2.27;;
2624;SDS011;1322;53.256;10.386;2023-07-29T15:10:14;2.67;;;2.20;;